Time;durP1;ratioP1;P1;durP2;ratioP2;P2;SDS_P1;SDS_P2;PMS_P1;PMS_P2;Temp;Humidity;BMP_temperature;BMP_pressure;BME280_temperature;BME280_humidity;BME280_pressure;Samples;Min_cycle;Max_cycle;Signal;HPM_P1;HPM_P2
2022/03/04 00:00:17;;;;;;;21.27;12.43;;;;;;;;;;5059899;28;20040;-69
2022/03/04 00:03:03;;;;;;;18.65;12.18;;;;;;;;;;5040703;28;20035;-69
2022/03/04 00:05:48;;;;;;;22.58;12.68;;;;;;;;;;5045118;28;20085;-70
2022/03/04 00:08:33;;;;;;;20.13;11.45;;;;;;;;;;5070836;28;20037;-63
2022/03/04 00:11:18;;;;;;;24.58;12.63;;;;;;;;;;5060773;28;20288;-65
2022/03/04 00:14:04;;;;;;;20.52;12.20;;;;;;;;;;5050680;28;20593;-61
2022/03/04 00:16:49;;;;;;;19.85;11.73;;;;;;;;;;5052903;28;20568;-62
2022/03/04 00:19:35;;;;;;;20.67;11.88;;;;;;;;;;5055867;28;20585;-64
2022/03/04 00:22:20;;;;;;;21.45;12.48;;;;;;;;;;5048215;28;20048;-62
2022/03/04 00:25:05;;;;;;;19.90;12.70;;;;;;;;;;5026209;28;20027;-62
2022/03/04 00:27:51;;;;;;;19.63;11.93;;;;;;;;;;5047717;28;20428;-61
2022/03/04 00:30:36;;;;;;;18.45;11.60;;;;;;;;;;5064802;28;20024;-66
2022/03/04 00:33:21;;;;;;;20.33;11.23;;;;;;;;;;5051874;28;20185;-64
2022/03/04 00:36:06;;;;;;;18.65;11.65;;;;;;;;;;5052850;28;20089;-65
2022/03/04 00:38:54;;;;;;;20.88;13.32;;;;;;;;;;5060720;28;20240;-63
2022/03/04 00:41:39;;;;;;;28.42;13.40;;;;;;;;;;5054840;28;20040;-66
2022/03/04 00:44:25;;;;;;;17.85;11.98;;;;;;;;;;5054346;28;20024;-65
2022/03/04 00:47:10;;;;;;;19.30;12.00;;;;;;;;;;5053156;28;20089;-65
2022/03/04 00:49:55;;;;;;;22.30;12.50;;;;;;;;;;5047957;28;20105;-66
2022/03/04 00:52:40;;;;;;;19.00;11.27;;;;;;;;;;5068144;28;20036;-67
2022/03/04 00:55:26;;;;;;;19.90;11.88;;;;;;;;;;5061678;28;20032;-68
2022/03/04 00:58:11;;;;;;;20.30;11.63;;;;;;;;;;5053372;28;20040;-66
2022/03/04 01:00:56;;;;;;;20.58;11.98;;;;;;;;;;5058448;28;20115;-67
2022/03/04 01:03:41;;;;;;;17.90;10.55;;;;;;;;;;5069625;28;20040;-65
2022/03/04 01:06:27;;;;;;;20.00;12.40;;;;;;;;;;5057957;28;20035;-70
2022/03/04 01:09:12;;;;;;;18.92;11.90;;;;;;;;;;5041951;28;20032;-67
2022/03/04 01:11:57;;;;;;;21.08;11.65;;;;;;;;;;5061364;28;20535;-66
2022/03/04 01:14:42;;;;;;;20.23;12.35;;;;;;;;;;5059712;28;20025;-65
2022/03/04 01:17:28;;;;;;;19.60;11.45;;;;;;;;;;5052493;28;20396;-64
2022/03/04 01:20:13;;;;;;;17.20;11.43;;;;;;;;;;5060148;28;20286;-65
2022/03/04 01:22:58;;;;;;;20.17;12.13;;;;;;;;;;5070865;28;20035;-67
2022/03/04 01:25:43;;;;;;;27.40;12.65;;;;;;;;;;5071907;28;20023;-66
2022/03/04 01:28:29;;;;;;;21.83;12.70;;;;;;;;;;5052317;28;20067;-66
2022/03/04 01:31:15;;;;;;;18.42;12.00;;;;;;;;;;5060733;28;20473;-68
2022/03/04 01:34:00;;;;;;;20.15;12.40;;;;;;;;;;5053051;28;20589;-66
2022/03/04 01:36:45;;;;;;;18.50;12.30;;;;;;;;;;5045140;28;20032;-67
2022/03/04 01:39:31;;;;;;;22.17;12.90;;;;;;;;;;5052539;28;20043;-65
2022/03/04 01:42:16;;;;;;;20.90;12.45;;;;;;;;;;5058194;28;20023;-69
2022/03/04 01:45:02;;;;;;;16.20;10.85;;;;;;;;;;5059880;28;20044;-66
2022/03/04 01:47:47;;;;;;;20.58;11.13;;;;;;;;;;5056236;28;20442;-66
2022/03/04 01:50:33;;;;;;;18.65;11.88;;;;;;;;;;5052661;28;20117;-66
2022/03/04 01:53:18;;;;;;;19.08;13.00;;;;;;;;;;5075156;28;20097;-65
2022/03/04 01:56:04;;;;;;;20.15;12.50;;;;;;;;;;5060772;28;20044;-65
2022/03/04 01:58:49;;;;;;;18.30;11.68;;;;;;;;;;5029392;28;20090;-68
2022/03/04 02:01:36;;;;;;;18.88;12.32;;;;;;;;;;5042947;28;20044;-65
2022/03/04 02:04:25;;;;;;;19.30;11.43;;;;;;;;;;5052250;28;20039;-68
2022/03/04 02:07:10;;;;;;;21.55;12.15;;;;;;;;;;5059070;28;20506;-68
2022/03/04 02:09:55;;;;;;;18.48;11.60;;;;;;;;;;5055727;28;20086;-68
2022/03/04 02:12:40;;;;;;;19.55;12.82;;;;;;;;;;5059016;28;20493;-67
2022/03/04 02:15:26;;;;;;;23.48;12.77;;;;;;;;;;5068808;28;20051;-66
2022/03/04 02:18:12;;;;;;;17.00;11.30;;;;;;;;;;5064954;28;20034;-68
2022/03/04 02:20:59;;;;;;;18.55;11.75;;;;;;;;;;5063290;28;20032;-65
2022/03/04 02:23:44;;;;;;;23.85;12.32;;;;;;;;;;5041708;28;20032;-64
2022/03/04 02:26:29;;;;;;;18.75;12.25;;;;;;;;;;5052470;28;20135;-64
2022/03/04 02:29:15;;;;;;;22.83;12.02;;;;;;;;;;5032358;28;20032;-63
2022/03/04 02:32:01;;;;;;;18.30;12.10;;;;;;;;;;5040228;28;20043;-63
2022/03/04 02:34:46;;;;;;;18.52;11.75;;;;;;;;;;5052890;28;20068;-64
2022/03/04 02:37:32;;;;;;;20.05;11.95;;;;;;;;;;5042339;28;20078;-62
2022/03/04 02:40:17;;;;;;;17.33;11.30;;;;;;;;;;5053279;28;20426;-67
2022/03/04 02:43:03;;;;;;;19.77;12.45;;;;;;;;;;5051687;28;20024;-67
2022/03/04 02:45:49;;;;;;;19.02;11.00;;;;;;;;;;5046754;28;20032;-68
2022/03/04 02:48:34;;;;;;;20.60;12.23;;;;;;;;;;5069686;28;20059;-65
2022/03/04 02:51:19;;;;;;;20.83;13.38;;;;;;;;;;5058943;28;20036;-66
2022/03/04 02:54:05;;;;;;;18.63;12.13;;;;;;;;;;5060410;28;20032;-68
2022/03/04 02:56:50;;;;;;;22.20;13.80;;;;;;;;;;5060733;28;20552;-63
2022/03/04 02:59:35;;;;;;;23.17;13.43;;;;;;;;;;5060291;28;20046;-66
2022/03/04 03:02:20;;;;;;;17.00;11.48;;;;;;;;;;5053369;28;20471;-67
2022/03/04 03:05:06;;;;;;;19.65;12.75;;;;;;;;;;5056774;28;20040;-68
2022/03/04 03:07:51;;;;;;;18.67;12.50;;;;;;;;;;5054482;28;20530;-66
2022/03/04 03:10:36;;;;;;;19.65;12.10;;;;;;;;;;5056380;28;20458;-66
2022/03/04 03:13:22;;;;;;;19.92;11.82;;;;;;;;;;5059269;28;20041;-66
2022/03/04 03:16:07;;;;;;;24.38;12.45;;;;;;;;;;5055772;28;20394;-61
2022/03/04 03:18:52;;;;;;;21.00;13.30;;;;;;;;;;5062152;28;20024;-60
2022/03/04 03:21:38;;;;;;;18.05;11.43;;;;;;;;;;5075562;28;20025;-60
2022/03/04 03:24:23;;;;;;;15.73;10.93;;;;;;;;;;5063901;28;20070;-60
2022/03/04 03:27:08;;;;;;;18.92;11.80;;;;;;;;;;5055681;28;20035;-60
2022/03/04 03:29:54;;;;;;;21.40;13.32;;;;;;;;;;5060354;28;20483;-60
2022/03/04 03:32:39;;;;;;;21.63;12.43;;;;;;;;;;5054691;28;20035;-64
2022/03/04 03:35:25;;;;;;;17.17;11.50;;;;;;;;;;5050212;28;20044;-69
2022/03/04 03:38:10;;;;;;;19.50;11.43;;;;;;;;;;5046638;28;20070;-67
2022/03/04 03:40:55;;;;;;;18.92;12.73;;;;;;;;;;5044801;28;20488;-67
2022/03/04 03:43:41;;;;;;;20.60;11.75;;;;;;;;;;5041019;28;20085;-68
2022/03/04 03:46:26;;;;;;;17.50;11.50;;;;;;;;;;5059236;28;20513;-67
2022/03/04 03:49:12;;;;;;;19.70;13.55;;;;;;;;;;5069941;28;20020;-62
2022/03/04 03:51:57;;;;;;;20.17;12.13;;;;;;;;;;5063554;28;20036;-65
2022/03/04 03:54:42;;;;;;;19.52;12.00;;;;;;;;;;5050621;28;20055;-63
2022/03/04 03:57:27;;;;;;;20.95;12.82;;;;;;;;;;5041262;28;20032;-64
2022/03/04 04:00:13;;;;;;;20.40;12.98;;;;;;;;;;5046464;28;20089;-63
2022/03/04 04:02:58;;;;;;;19.30;12.68;;;;;;;;;;5054090;28;20089;-69
2022/03/04 04:05:43;;;;;;;20.55;12.07;;;;;;;;;;5039997;28;20032;-67
2022/03/04 04:08:28;;;;;;;22.63;12.23;;;;;;;;;;5052776;28;20036;-70
2022/03/04 04:11:14;;;;;;;18.42;10.93;;;;;;;;;;5054359;28;20028;-70
2022/03/04 04:13:59;;;;;;;20.13;12.57;;;;;;;;;;5039295;28;20303;-67
2022/03/04 04:16:44;;;;;;;21.08;12.93;;;;;;;;;;5064526;28;20089;-67
2022/03/04 04:19:30;;;;;;;21.70;13.18;;;;;;;;;;5044453;28;20669;-68
2022/03/04 04:22:15;;;;;;;21.23;12.55;;;;;;;;;;5037825;28;20083;-71
2022/03/04 04:25:00;;;;;;;18.02;11.52;;;;;;;;;;5049013;28;20043;-66
2022/03/04 04:27:45;;;;;;;22.38;13.07;;;;;;;;;;5058727;28;20464;-61
2022/03/04 04:30:31;;;;;;;22.95;13.30;;;;;;;;;;5044575;28;20111;-65
2022/03/04 04:33:17;;;;;;;22.10;13.10;;;;;;;;;;5073822;28;20043;-66
2022/03/04 04:36:02;;;;;;;22.73;12.55;;;;;;;;;;5036018;28;20111;-68
2022/03/04 04:38:47;;;;;;;25.17;13.63;;;;;;;;;;5056586;28;20032;-65
2022/03/04 04:41:34;;;;;;;24.00;14.40;;;;;;;;;;5047969;28;20039;-64
2022/03/04 04:44:20;;;;;;;22.63;12.65;;;;;;;;;;5065581;28;20605;-65
2022/03/04 04:47:06;;;;;;;19.23;12.50;;;;;;;;;;5044672;28;20094;-67
2022/03/04 04:49:52;;;;;;;20.95;13.55;;;;;;;;;;5059906;28;20037;-68
2022/03/04 04:52:37;;;;;;;22.50;12.57;;;;;;;;;;5038574;28;20132;-66
2022/03/04 04:55:23;;;;;;;22.95;13.23;;;;;;;;;;5052097;28;20016;-67
2022/03/04 04:58:08;;;;;;;24.80;14.13;;;;;;;;;;5065883;28;20066;-67
2022/03/04 05:00:53;;;;;;;21.15;13.60;;;;;;;;;;5049615;28;20112;-66
2022/03/04 05:03:39;;;;;;;24.38;14.70;;;;;;;;;;5057915;28;20138;-70
2022/03/04 05:06:24;;;;;;;20.08;13.23;;;;;;;;;;5043746;28;20040;-67
2022/03/04 05:09:09;;;;;;;24.33;12.90;;;;;;;;;;5042120;28;20552;-64
2022/03/04 05:11:55;;;;;;;23.70;13.95;;;;;;;;;;5054990;28;20097;-66
2022/03/04 05:14:40;;;;;;;22.40;14.10;;;;;;;;;;5056885;28;20036;-67
2022/03/04 05:17:25;;;;;;;24.00;14.70;;;;;;;;;;5056250;28;20031;-65
2022/03/04 05:20:11;;;;;;;21.67;13.52;;;;;;;;;;5057509;28;20030;-65
2022/03/04 05:22:56;;;;;;;21.20;13.20;;;;;;;;;;5057435;28;20176;-66
2022/03/04 05:25:41;;;;;;;23.77;14.10;;;;;;;;;;5051280;28;20036;-63
2022/03/04 05:28:26;;;;;;;22.20;13.07;;;;;;;;;;5055640;28;20556;-63
2022/03/04 05:31:12;;;;;;;25.63;14.55;;;;;;;;;;5037659;28;20036;-65
2022/03/04 05:33:57;;;;;;;19.27;12.52;;;;;;;;;;5042622;28;20056;-63
2022/03/04 05:36:43;;;;;;;24.33;13.85;;;;;;;;;;5071896;28;20033;-65
2022/03/04 05:39:28;;;;;;;23.63;13.32;;;;;;;;;;5048907;28;20248;-67
2022/03/04 05:42:14;;;;;;;23.05;13.85;;;;;;;;;;5064251;28;20034;-66
2022/03/04 05:44:59;;;;;;;23.80;13.90;;;;;;;;;;5072891;28;20115;-67
2022/03/04 05:47:44;;;;;;;21.55;13.35;;;;;;;;;;5054988;28;20558;-66
2022/03/04 05:50:29;;;;;;;21.88;13.55;;;;;;;;;;5062693;28;20067;-66
2022/03/04 05:53:15;;;;;;;24.55;14.88;;;;;;;;;;5057636;28;20040;-69
2022/03/04 05:56:01;;;;;;;26.80;15.40;;;;;;;;;;5057054;28;20209;-67
2022/03/04 05:58:46;;;;;;;23.05;14.48;;;;;;;;;;5062230;28;20125;-69
2022/03/04 06:01:31;;;;;;;24.50;14.02;;;;;;;;;;5048365;28;20032;-70
2022/03/04 06:04:17;;;;;;;24.67;13.82;;;;;;;;;;5055122;28;20133;-68
2022/03/04 06:07:02;;;;;;;21.80;13.55;;;;;;;;;;5054127;28;20086;-67
2022/03/04 06:09:47;;;;;;;22.42;13.57;;;;;;;;;;5061434;28;20052;-67
2022/03/04 06:12:32;;;;;;;24.40;14.30;;;;;;;;;;5052117;28;20024;-66
2022/03/04 06:15:18;;;;;;;26.20;14.40;;;;;;;;;;5062319;28;20407;-65
2022/03/04 06:18:03;;;;;;;23.70;14.63;;;;;;;;;;5056081;28;20327;-67
2022/03/04 06:20:48;;;;;;;22.52;14.05;;;;;;;;;;5039450;28;20240;-66
2022/03/04 06:23:33;;;;;;;24.10;14.02;;;;;;;;;;5062961;28;20658;-66
2022/03/04 06:26:20;;;;;;;24.95;14.10;;;;;;;;;;5059189;28;20082;-66
2022/03/04 06:29:05;;;;;;;24.05;15.07;;;;;;;;;;5050523;28;20056;-69
2022/03/04 06:31:51;;;;;;;21.30;13.23;;;;;;;;;;5074849;28;20123;-67
2022/03/04 06:34:37;;;;;;;22.65;14.02;;;;;;;;;;5055970;28;20107;-64
2022/03/04 06:37:22;;;;;;;24.65;14.82;;;;;;;;;;5058370;28;20060;-68
2022/03/04 06:40:08;;;;;;;28.48;15.55;;;;;;;;;;5061457;28;20421;-66
2022/03/04 06:42:53;;;;;;;24.17;14.55;;;;;;;;;;5064142;28;20576;-65
2022/03/04 06:45:45;;;;;;;28.55;14.27;;;;;;;;;;5057484;28;20047;-67
2022/03/04 06:48:31;;;;;;;23.70;14.98;;;;;;;;;;5057188;28;20040;-65
2022/03/04 06:51:16;;;;;;;24.58;14.30;;;;;;;;;;5068304;28;20554;-68
2022/03/04 06:54:01;;;;;;;27.20;13.88;;;;;;;;;;5076852;28;20161;-63
2022/03/04 06:56:47;;;;;;;27.80;15.27;;;;;;;;;;5071527;28;20096;-69
2022/03/04 06:59:32;;;;;;;24.95;15.65;;;;;;;;;;5056633;28;20378;-68
2022/03/04 07:02:17;;;;;;;24.98;15.65;;;;;;;;;;5067479;28;20025;-69
2022/03/04 07:05:03;;;;;;;26.08;14.68;;;;;;;;;;5065260;28;20677;-67
2022/03/04 07:07:49;;;;;;;27.20;16.00;;;;;;;;;;5059325;28;20269;-69
2022/03/04 07:10:34;;;;;;;26.00;15.88;;;;;;;;;;5050920;28;20107;-65
2022/03/04 07:13:21;;;;;;;29.50;15.68;;;;;;;;;;5049961;28;20410;-63
2022/03/04 07:16:06;;;;;;;25.95;15.50;;;;;;;;;;5050673;28;20028;-62
2022/03/04 07:18:52;;;;;;;24.52;15.23;;;;;;;;;;5053934;28;20368;-61
2022/03/04 07:21:37;;;;;;;26.13;15.75;;;;;;;;;;5052531;28;20031;-61
2022/03/04 07:24:22;;;;;;;24.00;14.50;;;;;;;;;;5052832;28;20127;-61
2022/03/04 07:27:07;;;;;;;28.17;15.45;;;;;;;;;;5052269;28;20119;-61
2022/03/04 07:29:53;;;;;;;26.80;16.52;;;;;;;;;;5061314;28;20078;-60
2022/03/04 07:32:39;;;;;;;27.00;16.90;;;;;;;;;;5056158;28;20089;-63
2022/03/04 07:35:24;;;;;;;28.63;15.98;;;;;;;;;;5057091;28;20036;-64
2022/03/04 07:38:09;;;;;;;28.90;15.60;;;;;;;;;;5051612;28;20457;-63
2022/03/04 07:40:58;;;;;;;26.40;15.73;;;;;;;;;;5054732;28;20143;-63
2022/03/04 07:43:43;;;;;;;25.00;14.98;;;;;;;;;;5049481;28;20078;-65
2022/03/04 07:46:28;;;;;;;26.75;16.42;;;;;;;;;;5050750;28;20111;-65
2022/03/04 07:49:13;;;;;;;24.95;16.48;;;;;;;;;;5033632;28;20030;-62
2022/03/04 07:51:59;;;;;;;24.98;15.50;;;;;;;;;;5050676;28;20137;-67
2022/03/04 07:54:44;;;;;;;24.23;15.70;;;;;;;;;;5048948;28;20024;-67
2022/03/04 07:57:29;;;;;;;25.17;17.25;;;;;;;;;;5038389;28;20098;-68
2022/03/04 08:00:15;;;;;;;24.98;16.08;;;;;;;;;;5055214;28;20502;-67
2022/03/04 08:03:01;;;;;;;29.20;15.77;;;;;;;;;;5052086;28;20024;-65
2022/03/04 08:05:46;;;;;;;28.88;17.20;;;;;;;;;;5054813;28;20123;-65
2022/03/04 08:08:31;;;;;;;26.20;16.35;;;;;;;;;;5052369;28;20025;-66
2022/03/04 08:11:17;;;;;;;28.08;16.55;;;;;;;;;;5052754;28;20490;-66
2022/03/04 08:14:02;;;;;;;24.25;16.00;;;;;;;;;;5041051;28;20036;-67
2022/03/04 08:16:47;;;;;;;25.83;16.77;;;;;;;;;;5056308;28;20157;-66
2022/03/04 08:19:33;;;;;;;24.70;16.20;;;;;;;;;;5048864;28;20032;-68
2022/03/04 08:22:19;;;;;;;24.67;16.65;;;;;;;;;;5055184;28;20471;-63
2022/03/04 08:25:05;;;;;;;32.22;18.20;;;;;;;;;;5052020;28;20028;-70
2022/03/04 08:27:51;;;;;;;26.08;17.48;;;;;;;;;;5057120;28;20033;-63
2022/03/04 08:30:36;;;;;;;26.95;16.90;;;;;;;;;;5058149;28;20028;-60
2022/03/04 08:33:21;;;;;;;34.17;18.90;;;;;;;;;;5052169;28;20036;-62
2022/03/04 08:36:06;;;;;;;31.77;18.42;;;;;;;;;;5051489;28;20027;-62
2022/03/04 08:38:52;;;;;;;24.27;17.00;;;;;;;;;;5052420;28;20052;-62
2022/03/04 08:41:37;;;;;;;29.65;17.88;;;;;;;;;;5054014;28;20122;-60
2022/03/04 08:44:23;;;;;;;25.23;16.50;;;;;;;;;;5052703;28;20482;-63
2022/03/04 08:47:08;;;;;;;28.50;17.85;;;;;;;;;;5054162;28;20524;-64
2022/03/04 08:49:54;;;;;;;28.67;17.10;;;;;;;;;;5055082;28;20112;-66
2022/03/04 08:52:39;;;;;;;29.48;18.40;;;;;;;;;;5053152;28;20482;-67
2022/03/04 08:55:24;;;;;;;25.50;16.50;;;;;;;;;;5051232;28;20036;-68
2022/03/04 08:58:10;;;;;;;28.73;17.70;;;;;;;;;;5052261;28;20086;-66
2022/03/04 09:00:55;;;;;;;28.27;19.20;;;;;;;;;;5038187;28;20103;-66
2022/03/04 09:03:40;;;;;;;31.70;19.98;;;;;;;;;;5061035;28;20070;-68
2022/03/04 09:06:26;;;;;;;25.58;18.38;;;;;;;;;;5055501;28;20024;-62
2022/03/04 09:09:11;;;;;;;26.58;17.48;;;;;;;;;;5052540;28;20032;-62
2022/03/04 09:11:56;;;;;;;31.58;18.60;;;;;;;;;;5067545;28;20490;-62
2022/03/04 09:14:41;;;;;;;27.60;18.90;;;;;;;;;;5056206;28;20067;-62
2022/03/04 09:17:27;;;;;;;25.10;18.58;;;;;;;;;;5050690;28;20032;-62
2022/03/04 09:20:14;;;;;;;26.42;18.38;;;;;;;;;;5051524;28;20102;-68
2022/03/04 09:22:59;;;;;;;29.98;18.88;;;;;;;;;;5037078;28;20028;-67
2022/03/04 09:25:44;;;;;;;30.17;19.30;;;;;;;;;;5051470;28;20036;-62
2022/03/04 09:28:30;;;;;;;27.25;19.15;;;;;;;;;;5060117;28;20062;-62
2022/03/04 09:31:15;;;;;;;26.42;18.73;;;;;;;;;;5049850;28;20032;-67
2022/03/04 09:34:01;;;;;;;25.85;18.73;;;;;;;;;;5052347;28;20040;-60
2022/03/04 09:36:46;;;;;;;22.73;17.90;;;;;;;;;;5054486;28;20035;-62
2022/03/04 09:39:31;;;;;;;25.75;18.60;;;;;;;;;;5055424;28;20093;-68
2022/03/04 09:42:17;;;;;;;31.88;19.50;;;;;;;;;;5058188;28;20219;-64
2022/03/04 09:45:03;;;;;;;27.00;19.13;;;;;;;;;;5070740;28;20032;-64
2022/03/04 09:47:48;;;;;;;29.42;20.17;;;;;;;;;;5057475;28;20036;-63
2022/03/04 09:50:34;;;;;;;27.77;19.90;;;;;;;;;;5050930;28;20043;-61
2022/03/04 09:53:20;;;;;;;29.08;19.65;;;;;;;;;;5048423;28;20070;-62
2022/03/04 09:56:05;;;;;;;28.33;19.17;;;;;;;;;;5049792;28;20047;-61
2022/03/04 09:58:50;;;;;;;28.52;20.20;;;;;;;;;;5049084;28;20383;-64
2022/03/04 10:01:35;;;;;;;28.05;19.52;;;;;;;;;;5055875;28;20095;-68
2022/03/04 10:04:24;;;;;;;25.80;18.75;;;;;;;;;;5040538;28;20398;-67
2022/03/04 10:07:09;;;;;;;32.53;20.42;;;;;;;;;;5054228;28;20477;-65
2022/03/04 10:09:57;;;;;;;27.65;19.88;;;;;;;;;;5057364;28;20040;-65
2022/03/04 10:12:55;;;;;;;28.90;20.42;;;;;;;;;;5054281;28;20036;-65
2022/03/04 10:15:51;;;;;;;28.60;19.80;;;;;;;;;;5065949;28;20052;-65
2022/03/04 10:18:37;;;;;;;27.70;20.25;;;;;;;;;;5056686;28;20430;-70
2022/03/04 10:21:22;;;;;;;24.83;20.17;;;;;;;;;;5054380;28;20020;-67
2022/03/04 10:24:08;;;;;;;22.27;18.33;;;;;;;;;;5052023;28;20055;-64
2022/03/04 10:26:57;;;;;;;24.88;19.35;;;;;;;;;;5051913;28;20039;-67
2022/03/04 10:29:44;;;;;;;24.15;19.20;;;;;;;;;;5056428;28;20037;-66
2022/03/04 10:32:32;;;;;;;22.30;18.48;;;;;;;;;;5053041;28;20044;-67
2022/03/04 10:35:21;;;;;;;24.73;18.88;;;;;;;;;;5059677;28;20536;-68
2022/03/04 10:38:16;;;;;;;30.88;20.77;;;;;;;;;;5053214;28;20459;-69
2022/03/04 10:41:19;;;;;;;24.30;20.48;;;;;;;;;;5058534;28;20123;-68
2022/03/04 10:44:23;;;;;;;23.63;19.60;;;;;;;;;;5053951;28;20489;-67
2022/03/04 10:47:08;;;;;;;28.45;20.95;;;;;;;;;;5061922;28;20100;-66
2022/03/04 10:49:53;;;;;;;28.63;21.48;;;;;;;;;;5060862;28;20027;-68
2022/03/04 10:52:53;;;;;;;26.55;21.10;;;;;;;;;;5037533;28;20043;-68
2022/03/04 10:55:40;;;;;;;26.05;19.73;;;;;;;;;;5055705;28;20483;-62
2022/03/04 10:58:25;;;;;;;27.08;21.65;;;;;;;;;;5060375;28;20119;-62
2022/03/04 11:01:12;;;;;;;23.38;19.65;;;;;;;;;;5050005;28;20414;-61
2022/03/04 11:03:58;;;;;;;23.05;19.02;;;;;;;;;;5051633;28;20029;-62
2022/03/04 11:06:45;;;;;;;26.33;19.63;;;;;;;;;;5059075;28;20032;-61
2022/03/04 11:09:30;;;;;;;25.13;19.55;;;;;;;;;;5054256;28;20150;-64
2022/03/04 11:12:16;;;;;;;26.30;18.98;;;;;;;;;;5054207;28;21974;-69
2022/03/04 11:15:01;;;;;;;27.02;19.05;;;;;;;;;;5059155;28;20060;-72
2022/03/04 11:17:47;;;;;;;26.50;18.83;;;;;;;;;;5058520;28;20028;-68
2022/03/04 11:20:33;;;;;;;28.95;21.02;;;;;;;;;;5046755;28;20027;-69
2022/03/04 11:23:26;;;;;;;30.13;19.27;;;;;;;;;;5057884;28;20028;-71
2022/03/04 11:26:14;;;;;;;25.83;20.55;;;;;;;;;;5053150;28;20036;-69
2022/03/04 11:29:02;;;;;;;25.08;19.10;;;;;;;;;;5059513;28;20063;-69
2022/03/04 11:31:48;;;;;;;31.02;20.63;;;;;;;;;;5056974;28;20040;-69
2022/03/04 11:34:34;;;;;;;30.00;19.70;;;;;;;;;;5056577;28;20025;-60
2022/03/04 11:37:20;;;;;;;28.38;21.00;;;;;;;;;;5049438;28;20044;-59
2022/03/04 11:40:06;;;;;;;25.95;18.23;;;;;;;;;;5053747;28;20140;-55
2022/03/04 11:42:51;;;;;;;27.25;19.90;;;;;;;;;;5056244;28;20044;-56
2022/03/04 11:45:37;;;;;;;28.58;19.17;;;;;;;;;;5057975;28;20047;-56
2022/03/04 11:48:28;;;;;;;28.02;18.90;;;;;;;;;;5052028;28;20045;-76
2022/03/04 11:51:15;;;;;;;28.33;20.70;;;;;;;;;;5063121;28;20044;-68
2022/03/04 11:54:19;;;;;;;27.70;19.95;;;;;;;;;;5044698;28;20040;-67
2022/03/04 11:57:33;;;;;;;28.80;20.63;;;;;;;;;;5051964;28;20028;-66
2022/03/04 12:00:19;;;;;;;27.95;18.30;;;;;;;;;;5057612;28;20036;-66
2022/03/04 12:03:12;;;;;;;27.27;19.17;;;;;;;;;;5046975;28;20036;-68
2022/03/04 12:06:00;;;;;;;28.52;19.08;;;;;;;;;;5054614;28;20032;-66
2022/03/04 12:08:46;;;;;;;26.88;18.58;;;;;;;;;;5054485;28;20097;-67
2022/03/04 12:11:31;;;;;;;27.23;18.65;;;;;;;;;;5052582;28;20044;-67
2022/03/04 12:14:16;;;;;;;29.02;17.77;;;;;;;;;;5056760;28;20024;-67
2022/03/04 12:17:02;;;;;;;28.55;18.40;;;;;;;;;;5070641;28;20032;-66
2022/03/04 12:19:48;;;;;;;26.63;17.52;;;;;;;;;;5053497;28;20039;-69
2022/03/04 12:22:44;;;;;;;24.70;16.23;;;;;;;;;;5056790;28;20084;-66
2022/03/04 12:25:48;;;;;;;27.20;16.50;;;;;;;;;;5057859;28;20064;-71
2022/03/04 12:28:35;;;;;;;26.25;16.92;;;;;;;;;;5060232;28;20370;-66
2022/03/04 12:31:23;;;;;;;23.38;16.40;;;;;;;;;;5052760;28;20085;-67
2022/03/04 12:34:19;;;;;;;23.70;16.73;;;;;;;;;;5052564;28;20040;-65
2022/03/04 12:37:08;;;;;;;25.65;17.50;;;;;;;;;;5065409;28;20036;-66
2022/03/04 12:39:53;;;;;;;23.63;17.00;;;;;;;;;;5055521;28;20424;-67
2022/03/04 12:42:39;;;;;;;24.83;16.00;;;;;;;;;;5029062;28;20071;-65
2022/03/04 12:45:24;;;;;;;19.80;14.10;;;;;;;;;;5053690;28;20039;-64
2022/03/04 12:48:09;;;;;;;21.27;15.15;;;;;;;;;;5059520;28;20059;-68
2022/03/04 12:50:55;;;;;;;20.65;15.68;;;;;;;;;;5047943;28;20040;-67
2022/03/04 12:53:40;;;;;;;22.00;15.85;;;;;;;;;;5049644;28;20075;-66
2022/03/04 12:56:25;;;;;;;22.65;15.13;;;;;;;;;;5059101;28;20047;-68
2022/03/04 12:59:12;;;;;;;21.98;15.07;;;;;;;;;;5052211;28;20032;-66
2022/03/04 13:01:58;;;;;;;21.13;15.02;;;;;;;;;;5047033;28;20048;-61
2022/03/04 13:04:55;;;;;;;20.60;13.60;;;;;;;;;;5041917;28;20535;-63
2022/03/04 13:07:41;;;;;;;22.48;13.30;;;;;;;;;;5043012;28;20083;-66
2022/03/04 13:10:26;;;;;;;19.60;14.15;;;;;;;;;;5055585;28;20066;-70
2022/03/04 13:13:12;;;;;;;19.92;12.85;;;;;;;;;;5058445;28;20055;-70
2022/03/04 13:15:57;;;;;;;18.17;12.52;;;;;;;;;;5039836;28;20028;-66
2022/03/04 13:18:42;;;;;;;19.30;13.30;;;;;;;;;;5067281;28;20677;-67
2022/03/04 13:21:38;;;;;;;21.20;15.20;;;;;;;;;;5051846;28;20467;-65
2022/03/04 13:24:24;;;;;;;22.48;13.25;;;;;;;;;;5051163;28;20064;-68
2022/03/04 13:27:16;;;;;;;23.38;15.73;;;;;;;;;;5044756;28;20055;-67
2022/03/04 13:30:02;;;;;;;25.67;17.05;;;;;;;;;;5051898;28;20408;-66
2022/03/04 13:32:54;;;;;;;22.02;14.15;;;;;;;;;;5055942;28;20071;-67
2022/03/04 13:35:57;;;;;;;20.77;13.85;;;;;;;;;;5063716;28;20040;-66
2022/03/04 13:38:42;;;;;;;21.38;12.57;;;;;;;;;;5069573;28;20123;-65
2022/03/04 13:41:28;;;;;;;19.83;12.82;;;;;;;;;;5052575;28;20403;-62
2022/03/04 13:44:14;;;;;;;19.23;12.90;;;;;;;;;;5049545;28;20098;-67
2022/03/04 13:47:00;;;;;;;17.83;12.07;;;;;;;;;;5050625;28;20031;-66
2022/03/04 13:49:47;;;;;;;19.15;12.00;;;;;;;;;;5048368;28;20128;-63
2022/03/04 13:52:51;;;;;;;21.40;13.48;;;;;;;;;;5064421;28;20051;-63
2022/03/04 13:55:43;;;;;;;19.60;11.93;;;;;;;;;;5052868;28;20060;-63
2022/03/04 13:58:32;;;;;;;21.25;13.18;;;;;;;;;;5055465;28;20234;-61
2022/03/04 14:01:21;;;;;;;17.43;12.63;;;;;;;;;;5042793;28;20061;-62
2022/03/04 14:04:11;;;;;;;20.80;13.53;;;;;;;;;;5054526;28;20338;-60
2022/03/04 14:06:56;;;;;;;21.08;14.00;;;;;;;;;;5053273;28;20067;-63
2022/03/04 14:09:45;;;;;;;20.63;13.43;;;;;;;;;;5059405;28;20468;-61
2022/03/04 14:12:30;;;;;;;20.27;14.30;;;;;;;;;;5063808;28;20155;-62
2022/03/04 14:15:15;;;;;;;20.70;13.93;;;;;;;;;;5041206;28;20051;-66
2022/03/04 14:18:01;;;;;;;18.67;13.20;;;;;;;;;;5045983;28;20041;-63
2022/03/04 14:20:48;;;;;;;20.95;13.57;;;;;;;;;;5042816;28;20163;-63
2022/03/04 14:23:37;;;;;;;21.20;13.18;;;;;;;;;;5052030;28;20028;-62
2022/03/04 14:26:23;;;;;;;;;;;;;;;;;;5052578;28;20434;-64
2022/03/04 14:29:11;;;;;;;19.85;12.88;;;;;;;;;;5046354;28;19966;-65
2022/03/04 14:31:56;;;;;;;21.83;13.07;;;;;;;;;;5069591;28;20063;-64
2022/03/04 14:34:41;;;;;;;19.02;11.88;;;;;;;;;;5041861;28;20569;-66
2022/03/04 14:37:27;;;;;;;19.15;12.60;;;;;;;;;;5054378;28;20044;-64
2022/03/04 14:40:18;;;;;;;21.70;12.18;;;;;;;;;;5051891;28;20032;-61
2022/03/04 14:43:03;;;;;;;20.00;13.27;;;;;;;;;;5051037;28;20039;-61
2022/03/04 14:45:48;;;;;;;18.17;12.60;;;;;;;;;;5049880;28;20123;-59
2022/03/04 14:48:34;;;;;;;18.63;12.55;;;;;;;;;;5054136;28;20048;-60
2022/03/04 14:51:20;;;;;;;21.33;12.73;;;;;;;;;;5058818;28;20075;-62
2022/03/04 14:54:05;;;;;;;17.55;12.20;;;;;;;;;;5050850;28;20032;-62
2022/03/04 14:56:51;;;;;;;18.23;12.70;;;;;;;;;;5055788;28;20063;-65
2022/03/04 14:59:37;;;;;;;16.80;11.45;;;;;;;;;;5053620;28;20103;-65
2022/03/04 15:02:23;;;;;;;18.60;11.70;;;;;;;;;;5056433;28;20052;-63
2022/03/04 15:05:09;;;;;;;18.70;12.35;;;;;;;;;;5062320;28;20283;-64
2022/03/04 15:07:54;;;;;;;18.48;11.73;;;;;;;;;;5055117;28;20044;-65
2022/03/04 15:10:39;;;;;;;18.63;11.70;;;;;;;;;;5053865;28;20485;-64
2022/03/04 15:13:25;;;;;;;18.95;11.40;;;;;;;;;;5054231;28;20105;-66
2022/03/04 15:16:10;;;;;;;18.95;11.80;;;;;;;;;;5054451;28;20047;-63
2022/03/04 15:18:55;;;;;;;20.48;11.73;;;;;;;;;;5055927;28;20071;-64
2022/03/04 15:21:44;;;;;;;17.70;11.27;;;;;;;;;;5053570;28;20033;-63
2022/03/04 15:24:29;;;;;;;17.70;11.80;;;;;;;;;;5051870;28;20040;-64
2022/03/04 15:27:14;;;;;;;17.55;11.00;;;;;;;;;;5051470;28;20119;-67
2022/03/04 15:30:00;;;;;;;18.70;11.95;;;;;;;;;;5050000;28;20104;-68
2022/03/04 15:32:45;;;;;;;17.42;11.88;;;;;;;;;;5052578;28;20571;-67
2022/03/04 15:35:30;;;;;;;19.20;12.00;;;;;;;;;;5055083;28;20032;-65
2022/03/04 15:38:16;;;;;;;19.17;12.40;;;;;;;;;;5060116;28;20043;-68
2022/03/04 15:41:01;;;;;;;18.38;12.20;;;;;;;;;;5052640;28;20040;-66
2022/03/04 15:43:46;;;;;;;18.83;12.43;;;;;;;;;;5054117;28;20043;-72
2022/03/04 15:46:31;;;;;;;18.90;12.18;;;;;;;;;;5044478;28;20387;-69
2022/03/04 15:49:17;;;;;;;18.00;11.88;;;;;;;;;;5052592;28;20036;-65
2022/03/04 15:52:02;;;;;;;17.73;11.25;;;;;;;;;;5052755;28;20037;-65
2022/03/04 15:54:48;;;;;;;18.30;10.70;;;;;;;;;;5052209;28;20064;-63
2022/03/04 15:57:33;;;;;;;17.85;10.70;;;;;;;;;;5051567;28;20029;-64
2022/03/04 16:00:18;;;;;;;19.05;10.95;;;;;;;;;;5056613;28;20097;-62
2022/03/04 16:03:04;;;;;;;16.08;10.65;;;;;;;;;;5046414;28;20106;-62
2022/03/04 16:05:49;;;;;;;16.48;10.80;;;;;;;;;;5052781;28;20041;-66
2022/03/04 16:08:35;;;;;;;17.23;10.77;;;;;;;;;;5061034;28;20032;-62